createdAt,value
2023-01-27T00:00:54.417Z,2.23
2023-01-27T00:03:22.031Z,2.31
2023-01-27T00:05:48.985Z,2.45
2023-01-27T00:08:16.384Z,2.56
2023-01-27T00:10:43.280Z,2.62
2023-01-27T00:13:28.586Z,2.47
2023-01-27T00:15:59.121Z,2.32
2023-01-27T00:18:28.487Z,2.23
2023-01-27T00:21:13.945Z,2.21
2023-01-27T00:23:59.223Z,2.28
2023-01-27T00:26:26.024Z,2.35
2023-01-27T00:28:52.820Z,2.37
2023-01-27T00:31:38.303Z,2.38
2023-01-27T00:34:11.565Z,2.39
2023-01-27T00:36:41.415Z,2.43
2023-01-27T00:39:10.438Z,2.51
2023-01-27T00:41:37.540Z,2.50
2023-01-27T00:44:05.775Z,2.39
2023-01-27T00:46:33.336Z,2.22
2023-01-27T00:49:01.134Z,2.11
2023-01-27T00:51:27.939Z,2.03
2023-01-27T00:53:55.012Z,2.06
2023-01-27T00:56:21.809Z,2.22
2023-01-27T00:58:48.675Z,2.40
2023-01-27T01:01:17.599Z,2.55
2023-01-27T01:03:46.155Z,2.66
2023-01-27T01:06:15.615Z,2.64
2023-01-27T01:08:42.785Z,2.46
2023-01-27T01:11:13.440Z,2.27
2023-01-27T01:13:41.852Z,2.23
2023-01-27T01:16:13.039Z,2.33
2023-01-27T01:18:40.306Z,2.37
2023-01-27T01:21:07.564Z,2.35
2023-01-27T01:23:38.112Z,2.37
2023-01-27T01:26:05.062Z,2.43
2023-01-27T01:28:31.838Z,2.51
2023-01-27T01:31:14.489Z,2.55
2023-01-27T01:33:41.324Z,2.51
2023-01-27T01:36:14.182Z,2.41
2023-01-27T01:38:41.329Z,2.41
2023-01-27T01:41:12.332Z,2.29
2023-01-27T01:43:40.086Z,2.31
2023-01-27T01:46:11.357Z,2.30
2023-01-27T01:48:48.880Z,1.96
2023-01-27T01:51:25.660Z,1.83
2023-01-27T01:53:57.538Z,1.62
2023-01-27T01:56:31.050Z,1.58
2023-01-27T01:59:03.523Z,1.70
2023-01-27T02:01:30.409Z,1.87
2023-01-27T02:04:05.358Z,1.79
2023-01-27T02:06:41.012Z,1.78
2023-01-27T02:09:08.058Z,1.78
2023-01-27T02:11:35.901Z,1.85
2023-01-27T02:14:03.075Z,1.94
2023-01-27T02:16:30.443Z,1.86
2023-01-27T02:18:58.395Z,1.90
2023-01-27T02:21:25.314Z,1.90
2023-01-27T02:24:02.150Z,1.98
2023-01-27T02:26:42.236Z,1.89
2023-01-27T02:29:12.979Z,1.62
2023-01-27T02:31:40.089Z,1.60
2023-01-27T02:34:13.612Z,1.70
2023-01-27T02:36:50.111Z,1.64
2023-01-27T02:39:21.235Z,1.73
2023-01-27T02:41:52.285Z,1.66
2023-01-27T02:44:20.351Z,1.62
2023-01-27T02:46:47.240Z,1.71
2023-01-27T02:49:15.280Z,1.70
2023-01-27T02:51:42.241Z,1.69
2023-01-27T02:54:09.049Z,1.80
2023-01-27T02:56:35.894Z,1.83
2023-01-27T02:59:03.317Z,1.83
2023-01-27T03:01:37.229Z,1.77
2023-01-27T03:04:04.170Z,1.79
2023-01-27T03:06:30.873Z,1.91
2023-01-27T03:08:58.299Z,1.90
2023-01-27T03:11:43.772Z,1.79
2023-01-27T03:14:10.730Z,1.62
2023-01-27T03:16:57.822Z,1.49
2023-01-27T03:19:26.781Z,1.45
2023-01-27T03:21:54.347Z,1.51
2023-01-27T03:24:23.021Z,1.61
2023-01-27T03:26:51.486Z,1.54
2023-01-27T03:29:40.622Z,1.58
2023-01-27T03:32:07.738Z,1.68
2023-01-27T03:34:34.751Z,1.78
2023-01-27T03:37:25.151Z,1.82
2023-01-27T03:40:10.694Z,1.82
2023-01-27T03:42:56.360Z,1.64
2023-01-27T03:45:41.738Z,1.39
2023-01-27T03:48:08.519Z,1.33
2023-01-27T03:50:38.199Z,1.38
2023-01-27T03:53:05.927Z,1.50
2023-01-27T03:55:36.219Z,1.65
2023-01-27T03:58:18.552Z,1.64
2023-01-27T04:00:52.182Z,1.51
2023-01-27T04:03:38.608Z,1.52
2023-01-27T04:06:26.258Z,1.64
2023-01-27T04:08:53.195Z,1.51
2023-01-27T04:11:38.789Z,1.39
2023-01-27T04:14:06.797Z,1.27
2023-01-27T04:16:36.700Z,1.29
2023-01-27T04:19:07.839Z,1.40
2023-01-27T04:21:35.042Z,1.36
2023-01-27T04:24:02.138Z,1.46
2023-01-27T04:26:33.274Z,1.50
2023-01-27T04:29:01.382Z,1.56
2023-01-27T04:31:28.229Z,1.64
2023-01-27T04:33:55.458Z,1.57
2023-01-27T04:36:22.384Z,1.60
2023-01-27T04:38:49.324Z,1.60
2023-01-27T04:41:18.644Z,1.59
2023-01-27T04:43:45.448Z,1.53
2023-01-27T04:46:12.223Z,1.60
2023-01-27T04:48:38.992Z,1.62
2023-01-27T04:51:06.094Z,1.45
2023-01-27T04:53:32.908Z,1.22
2023-01-27T04:56:06.346Z,1.16
2023-01-27T04:58:33.682Z,1.16
2023-01-27T05:01:00.419Z,1.28
2023-01-27T05:03:27.192Z,1.44
2023-01-27T05:05:53.882Z,1.53
2023-01-27T05:08:20.732Z,1.50
2023-01-27T05:10:48.019Z,1.54
2023-01-27T05:13:14.973Z,1.41
2023-01-27T05:15:41.760Z,1.31
2023-01-27T05:18:08.701Z,1.28
2023-01-27T05:20:35.418Z,1.27
2023-01-27T05:23:20.498Z,1.28
2023-01-27T05:25:47.290Z,1.37
2023-01-27T05:28:14.218Z,1.34
2023-01-27T05:30:43.112Z,1.33
2023-01-27T05:33:10.991Z,1.37
2023-01-27T05:35:37.740Z,1.35
2023-01-27T05:38:04.445Z,1.44
2023-01-27T05:40:31.909Z,1.53
2023-01-27T05:42:58.659Z,1.32
2023-01-27T05:45:25.455Z,1.23
2023-01-27T05:47:52.184Z,1.25
2023-01-27T05:50:19.158Z,1.40
2023-01-27T05:52:46.218Z,1.48
2023-01-27T05:55:13.229Z,1.48
2023-01-27T05:57:40.059Z,1.43
2023-01-27T06:00:07.446Z,1.31
2023-01-27T06:02:34.921Z,1.27
2023-01-27T06:05:01.747Z,1.32
2023-01-27T06:07:28.439Z,1.47
2023-01-27T06:09:55.118Z,1.63
2023-01-27T06:12:21.967Z,1.63
2023-01-27T06:14:48.758Z,1.63
2023-01-27T06:17:15.448Z,1.66
2023-01-27T06:19:42.117Z,1.57
2023-01-27T06:22:09.003Z,1.40
2023-01-27T06:24:35.729Z,1.40
2023-01-27T06:27:02.550Z,1.39
2023-01-27T06:29:29.296Z,1.40
2023-01-27T06:31:56.185Z,1.34
2023-01-27T06:34:22.926Z,1.24
2023-01-27T06:36:49.745Z,1.13
2023-01-27T06:39:16.736Z,1.05
2023-01-27T06:41:43.524Z,1.14
2023-01-27T06:44:10.297Z,1.26
2023-01-27T06:46:37.194Z,1.28
2023-01-27T06:49:03.992Z,1.12
2023-01-27T06:51:30.835Z,1.11
2023-01-27T06:53:57.546Z,1.04
2023-01-27T06:56:24.269Z,0.99
2023-01-27T06:58:51.529Z,1.00
2023-01-27T07:01:18.459Z,1.09
2023-01-27T07:03:45.475Z,1.15
2023-01-27T07:06:12.613Z,1.22
2023-01-27T07:08:39.319Z,1.21
2023-01-27T07:11:06.246Z,1.16
2023-01-27T07:13:33.077Z,1.06
2023-01-27T07:16:00.569Z,1.04
2023-01-27T07:18:27.360Z,1.05
2023-01-27T07:20:54.154Z,1.13
2023-01-27T07:23:20.977Z,1.29
2023-01-27T07:25:47.917Z,1.29
2023-01-27T07:28:14.715Z,1.29
2023-01-27T07:30:43.362Z,1.25
2023-01-27T07:33:14.708Z,1.32
2023-01-27T07:35:42.831Z,1.50
2023-01-27T07:38:10.176Z,1.54
2023-01-27T07:40:36.949Z,1.58
2023-01-27T07:43:04.259Z,1.63
2023-01-27T07:45:34.106Z,1.70
2023-01-27T07:48:08.860Z,1.77
2023-01-27T07:50:39.184Z,1.78
2023-01-27T07:53:06.047Z,1.76
2023-01-27T07:55:33.638Z,1.86
2023-01-27T07:58:00.438Z,2.02
2023-01-27T08:00:28.356Z,2.15
2023-01-27T08:02:56.428Z,2.32
2023-01-27T08:05:23.810Z,2.39
2023-01-27T08:07:51.346Z,2.49
2023-01-27T08:10:19.081Z,2.67
2023-01-27T08:12:46.469Z,2.78
2023-01-27T08:15:14.782Z,2.85
2023-01-27T08:17:42.289Z,3.00
2023-01-27T08:20:09.752Z,3.12
2023-01-27T08:22:36.578Z,3.26
2023-01-27T08:25:03.376Z,3.32
2023-01-27T08:27:30.096Z,3.41
2023-01-27T08:29:56.803Z,3.50
2023-01-27T08:32:23.593Z,3.64
2023-01-27T08:34:50.484Z,3.73
2023-01-27T08:37:17.204Z,3.75
2023-01-27T08:39:43.943Z,3.79
2023-01-27T08:42:10.781Z,3.82
2023-01-27T08:44:37.531Z,3.84
2023-01-27T08:47:04.400Z,3.86
2023-01-27T08:49:31.176Z,3.97
2023-01-27T08:51:58.002Z,4.03
2023-01-27T08:54:24.760Z,4.11
2023-01-27T08:56:51.604Z,4.21
2023-01-27T08:59:18.268Z,4.25
2023-01-27T09:01:45.172Z,4.32
2023-01-27T09:04:12.110Z,4.39
2023-01-27T09:06:39.237Z,4.48
2023-01-27T09:09:11.551Z,4.53
2023-01-27T09:11:42.744Z,4.57
2023-01-27T09:14:10.214Z,4.72
2023-01-27T09:16:37.001Z,4.78
2023-01-27T09:19:04.327Z,4.80
2023-01-27T09:21:31.548Z,4.79
2023-01-27T09:23:58.338Z,4.85
2023-01-27T09:26:25.175Z,4.87
2023-01-27T09:28:51.966Z,4.95
2023-01-27T09:31:18.856Z,5.09
2023-01-27T09:33:45.710Z,5.15
2023-01-27T09:36:16.611Z,5.21
2023-01-27T09:38:52.429Z,5.32
2023-01-27T09:41:46.723Z,5.51
2023-01-27T09:44:41.975Z,5.49
2023-01-27T09:47:29.713Z,5.63
2023-01-27T09:50:02.362Z,5.73
2023-01-27T09:52:49.131Z,5.94
2023-01-27T09:55:30.740Z,6.09
2023-01-27T09:58:08.059Z,6.09
2023-01-27T10:01:05.108Z,6.08
2023-01-27T10:04:26.170Z,5.97
2023-01-27T10:07:13.739Z,6.00
2023-01-27T10:10:08.098Z,6.21
2023-01-27T10:13:07.049Z,6.57
2023-01-27T10:15:43.859Z,6.74
2023-01-27T10:18:40.069Z,6.83
2023-01-27T10:21:06.853Z,6.97
2023-01-27T10:23:53.887Z,7.01
2023-01-27T10:26:35.457Z,7.04
2023-01-27T10:29:26.275Z,7.05
2023-01-27T10:32:09.052Z,7.12
2023-01-27T10:34:37.292Z,7.20
2023-01-27T10:37:20.569Z,7.26
2023-01-27T10:40:14.425Z,7.05
2023-01-27T10:42:52.920Z,7.04
2023-01-27T10:45:39.977Z,7.13
2023-01-27T10:48:39.062Z,7.31
2023-01-27T10:51:11.740Z,7.44
2023-01-27T10:53:49.681Z,7.39
2023-01-27T10:56:28.689Z,7.53
2023-01-27T10:59:02.804Z,7.64
2023-01-27T11:01:39.710Z,7.65
2023-01-27T11:04:16.539Z,7.73
2023-01-27T11:06:46.055Z,7.82
2023-01-27T11:09:38.916Z,7.74
2023-01-27T11:12:15.317Z,7.62
2023-01-27T11:14:48.284Z,7.66
2023-01-27T11:17:40.883Z,7.45
2023-01-27T11:20:39.406Z,7.31
2023-01-27T11:23:18.038Z,7.38
2023-01-27T11:26:02.566Z,7.59
2023-01-27T11:28:37.443Z,7.84
2023-01-27T11:31:41.904Z,8.06
2023-01-27T11:34:24.081Z,8.05
2023-01-27T11:36:51.313Z,7.87
2023-01-27T11:39:18.662Z,7.92
2023-01-27T11:41:53.253Z,7.95
2023-01-27T11:44:24.858Z,8.00
2023-01-27T11:46:52.649Z,8.13
2023-01-27T11:49:25.878Z,8.14
2023-01-27T11:52:05.700Z,8.17
2023-01-27T11:54:43.054Z,8.26
2023-01-27T11:57:17.150Z,8.39
2023-01-27T11:59:45.652Z,8.33
2023-01-27T12:02:19.866Z,8.45
2023-01-27T12:05:05.016Z,8.56
2023-01-27T12:07:56.735Z,8.66
2023-01-27T12:10:33.723Z,8.63
2023-01-27T12:13:09.221Z,8.58
2023-01-27T12:15:38.112Z,8.61
2023-01-27T12:18:13.980Z,8.72
2023-01-27T12:20:45.194Z,8.76
2023-01-27T12:23:20.587Z,8.83
2023-01-27T12:25:53.894Z,8.79
2023-01-27T12:28:32.343Z,8.84
2023-01-27T12:31:20.852Z,8.79
2023-01-27T12:34:07.417Z,8.77
2023-01-27T12:36:40.629Z,8.73
2023-01-27T12:39:28.198Z,8.79
2023-01-27T12:41:55.123Z,8.79
2023-01-27T12:44:27.328Z,8.88
2023-01-27T12:47:00.446Z,8.91
2023-01-27T12:49:40.488Z,8.88
2023-01-27T12:52:18.189Z,8.93
2023-01-27T12:54:45.278Z,8.96
2023-01-27T12:57:19.792Z,9.00
2023-01-27T12:59:51.476Z,8.97
2023-01-27T13:02:30.728Z,9.00
2023-01-27T13:05:03.091Z,9.05
2023-01-27T13:07:43.950Z,9.07
2023-01-27T13:10:23.394Z,9.10
2023-01-27T13:12:51.433Z,9.15
2023-01-27T13:15:23.919Z,9.10
2023-01-27T13:17:53.110Z,9.09
2023-01-27T13:20:30.879Z,9.17
2023-01-27T13:23:08.161Z,9.11
2023-01-27T13:25:50.305Z,9.14
2023-01-27T13:28:33.454Z,9.20
2023-01-27T13:31:09.045Z,9.18
2023-01-27T13:33:48.082Z,9.11
2023-01-27T13:36:17.700Z,9.07
2023-01-27T13:38:57.222Z,9.14
2023-01-27T13:41:36.089Z,9.16
2023-01-27T13:44:21.171Z,9.15
2023-01-27T13:46:49.720Z,9.10
2023-01-27T13:49:28.843Z,9.15
2023-01-27T13:51:55.762Z,9.24
2023-01-27T13:54:24.100Z,9.26
2023-01-27T13:57:02.823Z,9.27
2023-01-27T14:00:04.098Z,9.24
2023-01-27T14:03:00.205Z,9.24
2023-01-27T14:05:36.242Z,9.15
2023-01-27T14:08:18.136Z,9.14
2023-01-27T14:11:06.069Z,9.11
2023-01-27T14:13:51.807Z,8.91
2023-01-27T14:16:38.917Z,8.82
2023-01-27T14:19:40.744Z,8.92
2023-01-27T14:22:24.506Z,8.91
2023-01-27T14:24:52.032Z,8.96
2023-01-27T14:27:45.833Z,9.07
2023-01-27T14:30:14.281Z,9.18
2023-01-27T14:32:52.666Z,9.03
2023-01-27T14:35:25.636Z,9.00
2023-01-27T14:38:07.059Z,8.90
2023-01-27T14:40:38.933Z,8.80
2023-01-27T14:43:26.682Z,8.62
2023-01-27T14:46:03.997Z,8.58
2023-01-27T14:48:49.128Z,8.69
2023-01-27T14:51:37.342Z,8.81
2023-01-27T14:54:19.916Z,8.88
2023-01-27T14:57:11.987Z,9.03
2023-01-27T15:00:17.451Z,9.06
2023-01-27T15:02:50.528Z,8.99
2023-01-27T15:05:33.037Z,8.90
2023-01-27T15:08:05.949Z,8.91
2023-01-27T15:10:33.882Z,8.82
2023-01-27T15:13:23.774Z,8.55
2023-01-27T15:16:11.331Z,8.40
2023-01-27T15:19:10.634Z,8.15
2023-01-27T15:22:03.420Z,8.01
2023-01-27T15:24:36.236Z,7.89
2023-01-27T15:27:03.948Z,7.81
2023-01-27T15:29:31.306Z,7.72
2023-01-27T15:32:17.930Z,7.72
2023-01-27T15:34:51.167Z,7.63
2023-01-27T15:37:26.360Z,7.61
2023-01-27T15:40:03.994Z,7.60
2023-01-27T15:43:02.682Z,7.49
2023-01-27T15:45:36.797Z,7.50
2023-01-27T15:48:21.592Z,7.44
2023-01-27T15:50:54.098Z,7.43
2023-01-27T15:53:32.425Z,7.37
2023-01-27T15:56:01.530Z,7.33
2023-01-27T15:58:40.700Z,7.24
2023-01-27T16:01:10.977Z,7.19
2023-01-27T16:03:45.026Z,7.10
2023-01-27T16:06:16.002Z,7.14
2023-01-27T16:08:52.470Z,7.18
2023-01-27T16:11:28.440Z,7.10
2023-01-27T16:14:17.151Z,6.95
2023-01-27T16:17:03.429Z,6.86
2023-01-27T16:19:36.787Z,6.85
2023-01-27T16:22:11.999Z,6.90
2023-01-27T16:24:57.035Z,6.83
2023-01-27T16:27:42.832Z,6.78
2023-01-27T16:30:24.090Z,6.67
2023-01-27T16:33:12.534Z,6.61
2023-01-27T16:35:45.660Z,6.58
2023-01-27T16:38:15.526Z,6.60
2023-01-27T16:40:49.399Z,6.62
2023-01-27T16:43:25.631Z,6.62
2023-01-27T16:45:55.797Z,6.58
2023-01-27T16:48:31.816Z,6.53
2023-01-27T16:51:19.311Z,6.50
2023-01-27T16:53:52.183Z,6.45
2023-01-27T16:56:24.966Z,6.41
2023-01-27T16:58:56.721Z,6.37
2023-01-27T17:01:28.216Z,6.26
2023-01-27T17:04:04.909Z,6.23
2023-01-27T17:06:42.613Z,6.24
2023-01-27T17:09:50.876Z,6.13
2023-01-27T17:12:31.115Z,6.05
2023-01-27T17:14:59.813Z,6.00
2023-01-27T17:17:29.350Z,5.97
2023-01-27T17:20:02.356Z,5.94
2023-01-27T17:22:39.668Z,5.81
2023-01-27T17:25:16.269Z,5.65
2023-01-27T17:27:45.087Z,5.57
2023-01-27T17:30:12.419Z,5.59
2023-01-27T17:32:42.144Z,5.61
2023-01-27T17:35:24.951Z,5.42
2023-01-27T17:37:52.011Z,5.45
2023-01-27T17:40:21.603Z,5.42
2023-01-27T17:42:49.669Z,5.20
2023-01-27T17:45:24.708Z,5.11
2023-01-27T17:47:51.904Z,5.13
2023-01-27T17:50:25.464Z,5.08
2023-01-27T17:52:54.544Z,5.13
2023-01-27T17:55:24.318Z,5.14
2023-01-27T17:57:59.714Z,5.20
2023-01-27T18:00:38.209Z,5.14
2023-01-27T18:03:13.715Z,4.97
2023-01-27T18:05:44.138Z,4.94
2023-01-27T18:08:11.473Z,5.10
2023-01-27T18:10:43.014Z,5.32
2023-01-27T18:13:15.266Z,5.44
2023-01-27T18:15:47.694Z,5.51
2023-01-27T18:18:26.773Z,5.56
2023-01-27T18:20:59.851Z,5.74
2023-01-27T18:23:49.670Z,5.84
2023-01-27T18:26:19.552Z,5.91
2023-01-27T18:29:00.997Z,5.98
2023-01-27T18:31:46.033Z,6.00
2023-01-27T18:34:22.075Z,6.04
2023-01-27T18:37:01.343Z,6.07
2023-01-27T18:39:33.954Z,5.62
2023-01-27T18:42:02.273Z,5.52
2023-01-27T18:44:35.416Z,5.59
2023-01-27T18:47:29.821Z,5.64
2023-01-27T18:50:01.470Z,5.67
2023-01-27T18:52:29.146Z,5.72
2023-01-27T18:55:02.230Z,5.69
2023-01-27T18:57:29.143Z,5.74
2023-01-27T18:59:58.386Z,5.76
2023-01-27T19:02:25.644Z,5.77
2023-01-27T19:04:52.683Z,5.72
2023-01-27T19:07:19.727Z,5.74
2023-01-27T19:09:50.230Z,5.81
2023-01-27T19:12:17.374Z,5.81
2023-01-27T19:14:46.510Z,5.78
2023-01-27T19:17:23.162Z,5.76
2023-01-27T19:19:50.152Z,5.78
2023-01-27T19:22:18.692Z,5.74
2023-01-27T19:24:46.007Z,5.72
2023-01-27T19:27:14.890Z,5.66
2023-01-27T19:29:45.145Z,5.58
2023-01-27T19:32:14.708Z,5.53
2023-01-27T19:34:42.027Z,5.53
2023-01-27T19:37:19.087Z,5.56
2023-01-27T19:39:49.328Z,5.51
2023-01-27T19:42:16.629Z,5.57
2023-01-27T19:44:43.951Z,5.41
2023-01-27T19:47:16.772Z,5.32
2023-01-27T19:49:43.894Z,5.25
2023-01-27T19:52:10.766Z,5.17
2023-01-27T19:54:38.016Z,5.09
2023-01-27T19:57:06.448Z,5.13
2023-01-27T19:59:33.545Z,5.17
2023-01-27T20:02:00.710Z,5.12
2023-01-27T20:04:27.976Z,4.90
2023-01-27T20:06:54.928Z,4.94
2023-01-27T20:09:22.189Z,4.97
2023-01-27T20:11:49.333Z,4.93
2023-01-27T20:14:26.045Z,4.94
2023-01-27T20:16:53.459Z,4.97
2023-01-27T20:19:20.584Z,4.96
2023-01-27T20:21:47.718Z,4.85
2023-01-27T20:24:24.043Z,4.77
2023-01-27T20:26:53.570Z,4.69
2023-01-27T20:29:20.420Z,4.56
2023-01-27T20:31:49.692Z,4.55
2023-01-27T20:34:16.919Z,4.58
2023-01-27T20:36:43.846Z,4.47
2023-01-27T20:39:11.179Z,4.46
2023-01-27T20:41:41.116Z,4.29
2023-01-27T20:44:11.918Z,3.96
2023-01-27T20:46:39.213Z,3.88
2023-01-27T20:49:06.161Z,3.77
2023-01-27T20:51:33.326Z,3.67
2023-01-27T20:54:00.904Z,3.72
2023-01-27T20:56:28.061Z,3.80
2023-01-27T20:58:55.089Z,4.00
2023-01-27T21:01:24.376Z,4.09
2023-01-27T21:03:52.769Z,4.19
2023-01-27T21:06:20.396Z,4.17
2023-01-27T21:08:49.497Z,4.10
2023-01-27T21:11:18.794Z,4.43
2023-01-27T21:13:46.015Z,4.86
2023-01-27T21:16:13.807Z,5.21
2023-01-27T21:18:41.113Z,5.30
2023-01-27T21:21:08.029Z,5.47
2023-01-27T21:23:35.160Z,5.62
2023-01-27T21:26:09.686Z,5.60
2023-01-27T21:28:36.807Z,5.58
2023-01-27T21:31:10.870Z,5.57
2023-01-27T21:33:40.598Z,5.52
2023-01-27T21:36:10.697Z,5.45
2023-01-27T21:38:38.997Z,5.37
2023-01-27T21:41:35.071Z,5.32
2023-01-27T21:44:20.987Z,4.55
2023-01-27T21:46:47.935Z,4.57
2023-01-27T21:49:21.542Z,4.56
2023-01-27T21:51:50.189Z,4.57
2023-01-27T21:54:17.272Z,4.42
2023-01-27T21:56:44.180Z,4.37
2023-01-27T21:59:11.086Z,4.25
2023-01-27T22:01:38.190Z,4.31
2023-01-27T22:04:05.278Z,4.33
2023-01-27T22:06:32.547Z,4.04
2023-01-27T22:08:59.365Z,4.11
2023-01-27T22:11:26.264Z,4.24
2023-01-27T22:13:53.082Z,4.30
2023-01-27T22:16:20.227Z,4.47
2023-01-27T22:18:47.132Z,4.38
2023-01-27T22:21:14.038Z,4.44
2023-01-27T22:23:40.841Z,4.45
2023-01-27T22:26:09.521Z,4.58
2023-01-27T22:28:36.817Z,4.83
2023-01-27T22:31:03.669Z,5.22
2023-01-27T22:33:32.142Z,5.30
2023-01-27T22:36:00.743Z,5.41
2023-01-27T22:38:27.638Z,5.58
2023-01-27T22:40:58.746Z,5.58
2023-01-27T22:43:25.697Z,5.59
2023-01-27T22:45:52.548Z,5.71
2023-01-27T22:48:19.522Z,5.68
2023-01-27T22:50:46.278Z,5.66
2023-01-27T22:53:13.452Z,5.62
2023-01-27T22:55:40.222Z,5.58
2023-01-27T22:58:08.087Z,5.57
2023-01-27T23:00:35.114Z,5.40
2023-01-27T23:03:01.990Z,5.25
2023-01-27T23:05:28.996Z,5.21
2023-01-27T23:07:55.946Z,5.11
2023-01-27T23:10:23.783Z,4.98
2023-01-27T23:12:50.611Z,4.75
2023-01-27T23:15:17.633Z,4.75
2023-01-27T23:17:44.684Z,4.44
2023-01-27T23:20:11.992Z,4.33
2023-01-27T23:22:38.796Z,4.35
2023-01-27T23:25:06.743Z,4.22
2023-01-27T23:27:33.987Z,4.32
2023-01-27T23:30:00.773Z,4.29
2023-01-27T23:32:27.570Z,4.47
2023-01-27T23:34:54.348Z,4.65
2023-01-27T23:37:21.112Z,4.87
2023-01-27T23:39:49.739Z,5.04
2023-01-27T23:42:17.736Z,5.14
2023-01-27T23:44:44.897Z,5.23
2023-01-27T23:47:13.109Z,5.29
2023-01-27T23:49:40.150Z,5.28
2023-01-27T23:52:07.103Z,5.24
2023-01-27T23:54:34.248Z,5.15
2023-01-27T23:57:01.226Z,4.81
2023-01-27T23:59:28.236Z,4.68
